createdAt,value
2018-07-01T00:01:40.471Z,19.1
2018-07-01T00:06:42.411Z,19.1
2018-07-01T00:11:44.710Z,19.1
2018-07-01T00:16:47.094Z,19
2018-07-01T00:21:49.232Z,18.9
2018-07-01T00:26:51.619Z,18.9
2018-07-01T00:31:53.930Z,18.799999
2018-07-01T00:36:56.183Z,18.700001
2018-07-01T00:41:58.552Z,18.6
2018-07-01T00:47:00.779Z,18.5
2018-07-01T00:52:03.111Z,18.4
2018-07-01T00:57:05.353Z,18.299999
2018-07-01T01:02:07.822Z,18.299999
2018-07-01T01:07:09.930Z,18.299999
2018-07-01T01:12:12.170Z,18.200001
2018-07-01T01:17:14.626Z,18.200001
2018-07-01T01:22:17.911Z,18.1
2018-07-01T01:27:19.228Z,18.200001
2018-07-01T01:32:21.685Z,18.200001
2018-07-01T01:37:23.874Z,18
2018-07-01T01:42:26.022Z,18.200001
2018-07-01T01:47:29.467Z,18.200001
2018-07-01T01:52:30.706Z,18.200001
2018-07-01T01:57:32.836Z,18.1
2018-07-01T02:02:35.142Z,18.1
2018-07-01T02:07:37.596Z,18
2018-07-01T02:12:39.770Z,18.1
2018-07-01T02:17:42.097Z,18.1
2018-07-01T02:22:44.343Z,18
2018-07-01T02:27:46.762Z,17.9
2018-07-01T02:32:48.999Z,17.799999
2018-07-01T02:37:51.260Z,17.700001
2018-07-01T02:42:53.714Z,17.6
2018-07-01T02:47:55.916Z,17.6
2018-07-01T02:52:58.168Z,17.5
2018-07-01T02:58:00.479Z,17.4
2018-07-01T03:03:02.792Z,17.4
2018-07-01T03:08:05.017Z,17.299999
2018-07-01T03:13:07.435Z,17.299999
2018-07-01T03:18:09.929Z,17.299999
2018-07-01T03:23:11.948Z,17.200001
2018-07-01T03:28:14.204Z,17.200001
2018-07-01T03:33:16.436Z,17.1
2018-07-01T03:38:18.837Z,17
2018-07-01T03:43:21.229Z,17
2018-07-01T03:48:23.638Z,17.1
2018-07-01T03:53:25.612Z,17
2018-07-01T03:58:29.288Z,16.9
2018-07-01T04:03:30.315Z,17
2018-07-01T04:08:32.561Z,16.9
2018-07-01T04:13:34.894Z,16.9
2018-07-01T04:18:37.183Z,16.9
2018-07-01T04:23:39.458Z,16.9
2018-07-01T04:28:41.666Z,16.9
2018-07-01T04:33:44.053Z,16.9
2018-07-01T04:38:46.368Z,16.799999
2018-07-01T04:43:48.636Z,16.799999
2018-07-01T04:48:50.973Z,16.799999
2018-07-01T04:53:53.168Z,16.799999
2018-07-01T04:58:57.718Z,17
2018-07-01T05:03:57.862Z,17
2018-07-01T05:09:00.219Z,17.1
2018-07-01T05:14:02.365Z,17.1
2018-07-01T05:19:04.704Z,17
2018-07-01T05:24:06.977Z,16.9
2018-07-01T05:29:09.164Z,16.9
2018-07-01T05:34:11.567Z,16.9
2018-07-01T05:39:15.205Z,17
2018-07-01T05:44:16.150Z,17.1
2018-07-01T05:49:18.546Z,17.5
2018-07-01T05:54:20.708Z,18
2018-07-01T05:59:23.035Z,18.700001
2018-07-01T06:04:25.351Z,19.4
2018-07-01T06:09:27.743Z,19.799999
2018-07-01T06:14:29.915Z,20
2018-07-01T06:19:32.097Z,20.200001
2018-07-01T06:24:40.254Z,20.299999
2018-07-01T06:29:36.751Z,20.4
2018-07-01T06:34:39.036Z,20.6
2018-07-01T06:39:41.591Z,20.799999
2018-07-01T06:44:43.664Z,21.1
2018-07-01T06:49:46.486Z,21.4
2018-07-01T06:54:48.333Z,21.6
2018-07-01T06:59:50.551Z,22
2018-07-01T07:04:52.802Z,22.200001
2018-07-01T07:09:55.336Z,22.4
2018-07-01T07:14:57.390Z,22.700001
2018-07-01T07:19:59.656Z,23.1
2018-07-01T07:25:02.079Z,23.299999
2018-07-01T07:30:04.249Z,23.4
2018-07-01T07:35:06.599Z,23.6
2018-07-01T07:40:08.909Z,24
2018-07-01T07:45:11.512Z,24
2018-07-01T07:50:13.508Z,24
2018-07-01T07:55:15.865Z,24.5
2018-07-01T08:00:18.011Z,24.700001
2018-07-01T08:05:22.139Z,25.1
2018-07-01T08:10:22.649Z,25.4
2018-07-01T08:15:24.953Z,25.9
2018-07-01T08:20:27.326Z,25.799999
2018-07-01T08:25:29.508Z,25.700001
2018-07-01T08:30:31.822Z,26
2018-07-01T08:35:34.219Z,26.299999
2018-07-01T08:40:37.592Z,26.4
2018-07-01T08:45:38.709Z,26.6
2018-07-01T08:50:41.024Z,26.700001
2018-07-01T08:55:43.232Z,27
2018-07-01T09:00:45.582Z,27.200001
2018-07-01T09:05:47.921Z,27.299999
2018-07-01T09:10:50.182Z,27.5
2018-07-01T09:15:52.594Z,28.1
2018-07-01T09:20:54.847Z,28.299999
2018-07-01T09:25:57.119Z,28.299999
2018-07-01T09:30:59.320Z,28.4
2018-07-01T09:36:01.718Z,28.5
2018-07-01T09:41:04.009Z,28.9
2018-07-01T09:46:06.291Z,29.5
2018-07-01T09:51:08.593Z,29.6
2018-07-01T09:56:10.898Z,29.299999
2018-07-01T10:01:13.270Z,29.299999
2018-07-01T10:06:15.370Z,29.799999
2018-07-01T10:11:28.111Z,29.9
2018-07-01T10:16:20.175Z,29.9
2018-07-01T10:21:22.287Z,29.799999
2018-07-01T10:26:24.655Z,29.799999
2018-07-01T10:31:27.102Z,30
2018-07-01T10:36:30.679Z,30.200001
2018-07-01T10:41:31.485Z,30.200001
2018-07-01T10:46:33.907Z,30.5
2018-07-01T10:51:36.037Z,30.6
2018-07-01T10:56:38.328Z,30.700001
2018-07-01T11:01:40.797Z,30.799999
2018-07-01T11:06:42.873Z,31
2018-07-01T11:11:45.471Z,30.9
2018-07-01T11:16:47.593Z,31.200001
2018-07-01T11:21:49.847Z,32
2018-07-01T11:26:52.366Z,31.700001
2018-07-01T11:31:54.436Z,31.9
2018-07-01T11:36:56.642Z,32.200001
2018-07-01T11:41:59.074Z,32.400002
2018-07-01T11:47:01.588Z,32.099998
2018-07-01T11:52:03.683Z,32
2018-07-01T11:57:05.963Z,32.5
2018-07-01T12:02:08.380Z,32.099998
2018-07-01T12:07:10.537Z,32.299999
2018-07-01T12:12:12.862Z,32.200001
2018-07-01T12:17:15.179Z,32.299999
2018-07-01T12:22:17.299Z,32.700001
2018-07-01T12:27:19.808Z,32.700001
2018-07-01T12:32:21.947Z,32.799999
2018-07-01T12:37:24.156Z,32.400002
2018-07-01T12:42:26.607Z,31.9
2018-07-01T12:47:28.788Z,32.200001
2018-07-01T12:52:31.118Z,32.599998
2018-07-01T12:57:33.617Z,32.5
2018-07-01T13:02:35.732Z,32
2018-07-01T13:07:38.055Z,31.799999
2018-07-01T13:12:40.304Z,31.799999
2018-07-01T13:17:42.578Z,32.099998
2018-07-01T13:22:46.108Z,32.299999
2018-07-01T13:27:51.560Z,32
2018-07-01T13:32:49.503Z,31.9
2018-07-01T13:37:51.829Z,32.200001
2018-07-01T13:42:54.102Z,32.400002
2018-07-01T13:47:56.362Z,32
2018-07-01T13:52:58.642Z,32
2018-07-01T13:58:00.900Z,31.9
2018-07-01T14:03:03.202Z,32.099998
2018-07-01T14:13:07.894Z,32.299999
2018-07-01T14:18:10.088Z,32
2018-07-01T14:23:12.461Z,32.099998
2018-07-01T14:28:14.828Z,32.299999
2018-07-01T14:33:18.499Z,31.9
2018-07-01T14:38:19.306Z,31.9
2018-07-01T14:43:21.714Z,32.099998
2018-07-01T14:48:24.009Z,31.9
2018-07-01T14:53:26.266Z,32.200001
2018-07-01T14:58:30.033Z,32.700001
2018-07-01T15:03:30.775Z,32.599998
2018-07-01T15:08:33.216Z,32.299999
2018-07-01T15:13:35.385Z,31.6
2018-07-01T15:18:37.581Z,31.5
2018-07-01T15:28:42.410Z,31
2018-07-01T15:33:44.521Z,31.1
2018-07-01T15:38:46.964Z,30.9
2018-07-01T15:43:49.123Z,30.700001
2018-07-01T15:48:51.461Z,30.799999
2018-07-01T15:53:55.025Z,30.9
2018-07-01T15:58:55.941Z,30
2018-07-01T16:03:58.288Z,29.9
2018-07-01T16:09:02.875Z,29.9
2018-07-01T16:14:02.903Z,29.4
2018-07-01T16:19:05.221Z,29.200001
2018-07-01T16:24:08.906Z,29
2018-07-01T16:29:09.806Z,28.799999
2018-07-01T16:34:13.440Z,28.6
2018-07-01T16:39:14.441Z,28.4
2018-07-01T16:44:16.722Z,28.200001
2018-07-01T16:49:18.892Z,28
2018-07-01T16:54:21.313Z,27.700001
2018-07-01T16:59:23.585Z,27.4
2018-07-01T17:04:25.857Z,27.299999
2018-07-01T17:09:28.164Z,27.1
2018-07-01T17:14:30.410Z,26.9
2018-07-01T17:19:32.770Z,26.799999
2018-07-01T17:24:35.213Z,26.700001
2018-07-01T17:29:37.322Z,26.5
2018-07-01T17:34:39.630Z,26.4
2018-07-01T17:39:42.020Z,26.200001
2018-07-01T17:44:44.215Z,26.200001
2018-07-01T17:49:46.631Z,26
2018-07-01T17:54:48.940Z,25.9
2018-07-01T17:59:51.082Z,25.799999
2018-07-01T18:04:53.348Z,25.700001
2018-07-01T18:09:55.709Z,25.6
2018-07-01T18:14:59.328Z,25.5
2018-07-01T18:20:01.514Z,25.4
2018-07-01T18:25:09.840Z,25.299999
2018-07-01T18:30:05.820Z,25.200001
2018-07-01T18:35:07.137Z,25.1
2018-07-01T18:40:09.450Z,24.9
2018-07-01T18:45:11.708Z,24.700001
2018-07-01T18:50:13.985Z,24.5
2018-07-01T18:55:16.360Z,24.299999
2018-07-01T19:00:18.682Z,24
2018-07-01T19:05:22.359Z,23.700001
2018-07-01T19:10:23.333Z,23.5
2018-07-01T19:15:25.516Z,23.200001
2018-07-01T19:20:27.996Z,22.799999
2018-07-01T19:25:30.079Z,22.700001
2018-07-01T19:30:32.341Z,22.4
2018-07-01T19:35:34.802Z,22.1
2018-07-01T19:40:36.965Z,21.799999
2018-07-01T19:45:39.470Z,21.6
2018-07-01T19:50:41.590Z,21.4
2018-07-01T19:55:43.863Z,21.200001
2018-07-01T20:00:46.257Z,20.9
2018-07-01T20:05:48.495Z,20.700001
2018-07-01T20:16:07.322Z,20.299999
2018-07-01T20:21:09.595Z,20.200001
2018-07-01T20:26:13.817Z,20.1
2018-07-01T20:31:14.373Z,20.1
2018-07-01T20:36:16.532Z,20
2018-07-01T20:41:18.750Z,20
2018-07-01T20:46:21.041Z,19.9
2018-07-01T20:51:23.347Z,19.799999
2018-07-01T20:56:25.641Z,19.799999
2018-07-01T21:01:27.991Z,19.799999
2018-07-01T21:06:31.716Z,19.9
2018-07-01T21:11:32.509Z,19.9
2018-07-01T21:16:34.815Z,19.9
2018-07-01T21:21:37.187Z,19.9
2018-07-01T21:26:39.592Z,19.9
2018-07-01T21:31:41.707Z,19.799999
2018-07-01T21:36:44.138Z,19.6
2018-07-01T21:41:46.418Z,19.5
2018-07-01T21:46:48.557Z,19.5
2018-07-01T21:51:50.968Z,19.299999
2018-07-01T21:56:53.153Z,19.200001
2018-07-01T22:01:55.564Z,19.1
2018-07-01T22:06:57.934Z,19.1
2018-07-01T22:12:00.043Z,19
2018-07-01T22:17:02.348Z,19
2018-07-01T22:22:04.842Z,18.700001
2018-07-01T22:27:06.830Z,18.6
2018-07-01T22:32:09.217Z,18.4
2018-07-01T22:37:11.747Z,18.299999
2018-07-01T22:42:13.827Z,18.200001
2018-07-01T22:47:16.245Z,18.1
2018-07-01T22:52:18.596Z,18
2018-07-01T22:57:20.605Z,17.799999
2018-07-01T23:02:23.129Z,17.6
2018-07-01T23:07:25.361Z,17.6
2018-07-01T23:12:27.707Z,17.5
2018-07-01T23:17:29.926Z,17.4
2018-07-01T23:22:32.379Z,17.200001
2018-07-01T23:27:34.485Z,17.1
2018-07-01T23:32:36.763Z,17
2018-07-01T23:37:39.137Z,16.799999
2018-07-01T23:42:41.353Z,16.799999
2018-07-01T23:47:43.611Z,16.6
2018-07-01T23:52:47.254Z,16.5
2018-07-01T23:57:48.410Z,16.4
